Time;durP1;ratioP1;P1;durP2;ratioP2;P2;SDS_P1;SDS_P2;PMS_P1;PMS_P2;Temp;Humidity;BMP_temperature;BMP_pressure;BME280_temperature;BME280_humidity;BME280_pressure;Samples;Min_cycle;Max_cycle;Signal;HPM_P1;HPM_P2
2022/11/29 00:01:14;;;;;;;31.37;14.30;;;1.50;99.90;;;;;;4789352;29;20207;-75
2022/11/29 00:03:41;;;;;;;31.60;14.80;;;1.50;99.90;;;;;;4789328;29;20258;-76
2022/11/29 00:06:16;;;;;;;30.77;14.77;;;1.50;99.90;;;;;;4789121;29;20326;-77
2022/11/29 00:08:44;;;;;;;31.43;14.40;;;1.60;99.90;;;;;;4786529;30;20210;-78
2022/11/29 00:12:10;;;;;;;35.13;15.13;;;1.50;99.90;;;;;;4786210;29;20210;-73
2022/11/29 00:14:01;;;;;;;36.27;15.07;;;1.50;99.90;;;;;;4786360;29;20226;-78
2022/11/29 00:16:28;;;;;;;35.00;15.20;;;1.50;99.90;;;;;;4786211;29;20647;-76
2022/11/29 00:18:55;;;;;;;36.00;15.33;;;1.50;99.90;;;;;;4790982;29;20608;-78
2022/11/29 00:21:22;;;;;;;33.50;15.53;;;1.60;99.90;;;;;;4774371;29;20217;-73
2022/11/29 00:23:49;;;;;;;33.60;14.83;;;1.60;99.90;;;;;;4789137;29;20221;-80
2022/11/29 00:26:16;;;;;;;30.67;14.63;;;1.50;99.90;;;;;;4805526;29;20286;-80
2022/11/29 00:28:43;;;;;;;33.93;14.53;;;1.60;99.90;;;;;;4789368;29;20214;-79
2022/11/29 00:31:26;;;;;;;31.60;14.80;;;1.60;99.90;;;;;;4789279;29;20209;-74
2022/11/29 00:33:53;;;;;;;32.80;14.90;;;1.60;99.90;;;;;;4789115;29;20681;-74
2022/11/29 00:36:20;;;;;;;31.67;14.97;;;1.60;99.90;;;;;;4787060;29;20727;-75
2022/11/29 00:38:47;;;;;;;32.93;14.67;;;1.70;99.90;;;;;;4785858;30;20666;-74
2022/11/29 00:41:14;;;;;;;29.53;13.83;;;1.70;99.90;;;;;;4786010;30;20212;-77
2022/11/29 00:43:41;;;;;;;33.30;15.37;;;1.80;99.90;;;;;;4780731;29;20238;-74
2022/11/29 00:46:08;;;;;;;35.43;15.27;;;1.70;99.90;;;;;;4788870;29;20202;-74
2022/11/29 00:48:36;;;;;;;31.63;14.00;;;1.70;99.90;;;;;;4805120;29;20260;-75
2022/11/29 00:51:04;;;;;;;39.47;16.27;;;1.70;99.90;;;;;;4789117;29;20207;-75
2022/11/29 00:53:33;;;;;;;31.63;14.60;;;1.70;99.90;;;;;;4789109;29;20298;-80
2022/11/29 00:56:00;;;;;;;30.07;14.77;;;1.80;99.90;;;;;;4789456;29;20555;-77
2022/11/29 00:58:27;;;;;;;33.23;14.87;;;1.80;99.90;;;;;;4788773;29;20305;-77
2022/11/29 01:00:55;;;;;;;34.07;15.27;;;1.70;99.90;;;;;;4789355;29;20214;-77
2022/11/29 01:03:23;;;;;;;33.20;15.03;;;1.80;99.90;;;;;;4791963;29;20283;-81
2022/11/29 01:05:50;;;;;;;31.60;14.93;;;1.80;99.90;;;;;;4792154;29;20223;-78
2022/11/29 01:08:18;;;;;;;32.47;14.47;;;1.80;99.90;;;;;;4791958;29;20214;-77
2022/11/29 01:10:45;;;;;;;32.23;14.53;;;1.80;99.90;;;;;;4788643;29;20214;-80
2022/11/29 01:13:12;;;;;;;34.63;14.93;;;1.90;99.90;;;;;;4793462;29;20276;-84
2022/11/29 01:15:40;;;;;;;33.60;14.57;;;1.80;99.90;;;;;;4808096;29;20203;-85
2022/11/29 01:18:07;;;;;;;31.30;14.27;;;1.70;99.90;;;;;;4792340;29;20222;-83
2022/11/29 01:20:34;;;;;;;32.00;14.00;;;1.70;99.90;;;;;;4792441;29;20214;-88
2022/11/29 01:23:01;;;;;;;32.90;14.13;;;1.70;99.90;;;;;;4792299;29;20223;-88
2022/11/29 01:25:28;;;;;;;35.50;14.40;;;1.70;99.90;;;;;;4791904;29;20192;-87
2022/11/29 01:27:55;;;;;;;31.47;14.57;;;1.70;99.90;;;;;;4792109;29;20292;-76
2022/11/29 01:30:22;;;;;;;29.73;13.77;;;1.70;99.90;;;;;;4808394;29;20696;-81
2022/11/29 01:32:49;;;;;;;35.73;14.37;;;1.70;99.90;;;;;;4789347;29;20224;-76
2022/11/29 01:35:15;;;;;;;30.47;14.20;;;1.70;99.90;;;;;;4796986;29;20239;-83
2022/11/29 01:37:42;;;;;;;33.43;14.67;;;1.70;99.90;;;;;;4782304;29;20235;-86
2022/11/29 01:40:10;;;;;;;34.30;14.23;;;1.60;99.90;;;;;;4790729;29;20217;-83
2022/11/29 01:42:36;;;;;;;34.17;14.17;;;1.60;99.90;;;;;;4798894;29;20234;-86
2022/11/29 01:45:19;;;;;;;31.13;14.67;;;1.50;99.90;;;;;;4785788;29;20651;-85
2022/11/29 01:47:49;;;;;;;28.50;13.67;;;1.50;99.90;;;;;;4785335;29;20202;-88
2022/11/29 01:50:16;;;;;;;37.00;15.03;;;1.50;99.90;;;;;;4798655;29;20199;-87
2022/11/29 01:52:44;;;;;;;34.33;14.57;;;1.60;99.90;;;;;;4791720;29;20639;-75
2022/11/29 01:55:11;;;;;;;31.77;14.20;;;1.60;99.90;;;;;;4791290;29;20213;-78
2022/11/29 01:57:41;;;;;;;35.27;15.13;;;1.60;99.90;;;;;;4791425;29;20294;-73
2022/11/29 02:00:12;;;;;;;33.37;15.23;;;1.60;99.90;;;;;;4791503;29;20208;-75
2022/11/29 02:03:00;;;;;;;31.53;14.43;;;1.60;99.90;;;;;;4751733;30;20237;-83
2022/11/29 02:05:27;;;;;;;33.50;14.73;;;1.60;99.90;;;;;;4751857;30;20263;-75
2022/11/29 02:07:57;;;;;;;35.30;14.83;;;1.70;99.90;;;;;;4737405;30;20672;-81
2022/11/29 02:10:46;;;;;;;32.77;14.30;;;1.70;99.90;;;;;;4752055;30;20229;-75
2022/11/29 02:13:18;;;;;;;32.67;13.37;;;1.60;99.90;;;;;;4736283;30;20338;-78
2022/11/29 02:16:00;;;;;;;35.23;15.00;;;1.60;99.90;;;;;;4737181;30;20213;-84
2022/11/29 02:18:43;;;;;;;32.83;14.23;;;1.70;99.90;;;;;;4737475;30;20219;-83
2022/11/29 02:21:24;;;;;;;30.60;14.27;;;1.60;99.90;;;;;;4773614;29;20211;-84
2022/11/29 02:24:20;;;;;;;37.47;14.93;;;1.70;99.90;;;;;;4793854;29;20236;-79
2022/11/29 02:27:02;;;;;;;29.53;14.07;;;1.70;99.90;;;;;;4810559;29;20791;-80
2022/11/29 02:29:57;;;;;;;33.03;13.97;;;1.70;99.90;;;;;;4791352;29;20592;-82
2022/11/29 02:33:06;;;;;;;33.97;13.97;;;1.70;99.90;;;;;;4807315;29;20211;-78
2022/11/29 02:35:56;;;;;;;34.13;15.00;;;1.70;99.90;;;;;;4790977;29;20583;-78
2022/11/29 02:38:35;;;;;;;30.10;13.90;;;1.70;99.90;;;;;;4791074;29;20293;-79
2022/11/29 02:41:17;;;;;;;33.53;14.43;;;1.60;99.90;;;;;;4791065;29;20211;-78
2022/11/29 02:44:14;;;;;;;29.93;14.37;;;1.70;99.90;;;;;;4791214;29;20690;-79
2022/11/29 02:46:54;;;;;;;33.47;14.13;;;1.70;99.90;;;;;;4790594;29;20209;-81
2022/11/29 02:49:33;;;;;;;31.17;13.50;;;1.70;99.90;;;;;;4803699;29;20668;-85
2022/11/29 02:52:15;;;;;;;31.87;14.50;;;1.70;99.90;;;;;;4793972;29;20216;-83
2022/11/29 02:54:45;;;;;;;29.70;13.37;;;1.70;99.90;;;;;;4808683;29;20267;-83
2022/11/29 02:57:36;;;;;;;29.00;13.67;;;1.80;99.90;;;;;;4825284;29;20615;-83
2022/11/29 03:00:07;;;;;;;29.57;14.57;;;1.80;99.90;;;;;;4824163;29;20214;-88
2022/11/29 03:02:34;;;;;;;30.67;13.30;;;1.80;99.90;;;;;;4808526;29;20210;-90
2022/11/29 03:05:15;;;;;;;31.17;13.30;;;1.80;99.90;;;;;;4808719;29;20235;-86
2022/11/29 03:07:48;;;;;;;29.93;14.37;;;1.80;99.90;;;;;;4794290;29;20232;-75
2022/11/29 03:10:49;;;;;;;29.43;13.37;;;1.80;99.90;;;;;;4808743;29;20718;-74
2022/11/29 03:13:22;;;;;;;28.50;13.40;;;1.80;99.90;;;;;;4825316;29;20206;-76
2022/11/29 03:16:32;;;;;;;30.67;14.17;;;1.90;99.90;;;;;;4808384;29;20206;-76
2022/11/29 03:19:11;;;;;;;33.63;13.70;;;1.80;99.90;;;;;;4750903;30;20210;-77
2022/11/29 03:21:44;;;;;;;34.20;13.40;;;1.80;99.90;;;;;;4750906;30;20224;-75
2022/11/29 03:24:21;;;;;;;28.43;13.57;;;1.80;99.90;;;;;;4750398;30;20253;-81
2022/11/29 03:27:02;;;;;;;28.90;13.27;;;1.90;99.90;;;;;;4750745;30;20600;-77
2022/11/29 03:29:39;;;;;;;31.50;13.33;;;1.90;99.90;;;;;;4750801;30;20216;-77
2022/11/29 03:32:23;;;;;;;29.40;13.77;;;1.90;99.90;;;;;;4750759;30;20209;-75
2022/11/29 03:35:11;;;;;;;31.30;13.07;;;1.80;99.90;;;;;;4750744;30;20248;-75
2022/11/29 03:37:59;;;;;;;28.47;12.50;;;1.80;99.90;;;;;;4750620;30;20220;-74
2022/11/29 03:40:38;;;;;;;33.87;13.20;;;1.90;99.90;;;;;;4750809;30;20206;-81
2022/11/29 03:43:11;;;;;;;30.60;13.40;;;1.80;99.90;;;;;;4750739;30;20617;-86
2022/11/29 03:45:52;;;;;;;31.23;13.90;;;1.80;99.90;;;;;;4735825;30;20213;-86
2022/11/29 03:48:28;;;;;;;31.07;13.67;;;1.80;99.90;;;;;;4750556;30;20209;-88
2022/11/29 03:51:01;;;;;;;28.00;13.37;;;1.80;99.90;;;;;;4751496;30;20262;-85
2022/11/29 03:53:42;;;;;;;28.77;13.30;;;1.80;99.90;;;;;;4750546;30;20209;-86
2022/11/29 03:56:32;;;;;;;29.97;13.33;;;1.80;99.90;;;;;;4784891;29;20305;-86
2022/11/29 03:59:20;;;;;;;29.40;13.07;;;1.80;99.90;;;;;;4823371;29;20205;-87
2022/11/29 04:02:16;;;;;;;29.77;13.93;;;1.80;99.90;;;;;;4808046;29;20221;-88
2022/11/29 04:05:11;;;;;;;30.40;12.87;;;1.80;99.90;;;;;;4750270;30;20232;-74
2022/11/29 04:07:59;;;;;;;27.60;12.53;;;1.80;99.90;;;;;;4735829;30;20240;-77
2022/11/29 04:10:48;;;;;;;27.43;13.17;;;1.90;99.90;;;;;;4735707;30;20217;-84
2022/11/29 04:13:55;;;;;;;24.77;12.40;;;1.80;99.90;;;;;;4750328;30;20251;-75
2022/11/29 04:16:30;;;;;;;30.70;12.80;;;1.80;99.90;;;;;;4721142;30;20213;-83
2022/11/29 04:19:37;;;;;;;25.20;12.43;;;1.80;99.90;;;;;;4735836;30;20298;-79
2022/11/29 04:22:31;;;;;;;27.43;12.93;;;1.70;99.90;;;;;;4750374;30;20683;-78
2022/11/29 04:25:10;;;;;;;27.30;12.67;;;1.70;99.90;;;;;;4735737;30;20236;-78
2022/11/29 04:27:58;;;;;;;28.27;12.70;;;1.70;99.90;;;;;;4750498;30;20555;-79
2022/11/29 04:30:26;;;;;;;26.17;12.13;;;1.80;99.90;;;;;;4750316;30;20209;-88
2022/11/29 04:33:18;;;;;;;27.17;12.93;;;1.70;99.90;;;;;;4750212;30;20228;-86
2022/11/29 04:36:01;;;;;;;30.17;13.10;;;1.70;99.90;;;;;;4750228;30;20245;-78
2022/11/29 04:38:43;;;;;;;27.60;13.33;;;1.60;99.90;;;;;;4738861;30;20214;-73
2022/11/29 04:41:18;;;;;;;32.70;13.83;;;1.60;99.90;;;;;;4757329;29;20206;-74
2022/11/29 04:43:48;;;;;;;27.80;12.40;;;1.60;99.90;;;;;;4827108;29;20308;-74
2022/11/29 04:46:40;;;;;;;32.50;13.93;;;1.60;99.90;;;;;;4827051;29;20203;-80
2022/11/29 04:49:23;;;;;;;31.37;13.43;;;1.60;99.90;;;;;;4811034;29;20202;-80
2022/11/29 04:52:21;;;;;;;35.30;13.87;;;1.60;99.90;;;;;;4810852;29;20241;-75
2022/11/29 04:55:15;;;;;;;33.23;14.33;;;1.60;99.90;;;;;;4827010;29;20197;-76
2022/11/29 04:58:12;;;;;;;34.03;14.23;;;1.70;99.90;;;;;;4827128;29;20206;-84
2022/11/29 05:00:48;;;;;;;31.20;13.70;;;1.60;99.90;;;;;;4825872;29;20213;-78
2022/11/29 05:03:30;;;;;;;30.60;13.27;;;1.60;99.90;;;;;;4803223;29;20253;-77
2022/11/29 05:06:20;;;;;;;38.70;15.00;;;1.60;99.90;;;;;;4774660;30;20315;-74
2022/11/29 05:08:59;;;;;;;32.63;13.97;;;1.60;99.90;;;;;;4788699;29;20654;-74
2022/11/29 05:11:48;;;;;;;31.20;14.57;;;1.60;99.90;;;;;;4808872;29;20207;-75
2022/11/29 05:14:33;;;;;;;34.50;15.30;;;1.70;99.90;;;;;;4792678;29;20208;-80
2022/11/29 05:17:23;;;;;;;33.07;15.03;;;1.80;99.90;;;;;;4809130;29;20200;-82
2022/11/29 05:19:56;;;;;;;41.33;15.90;;;1.70;99.90;;;;;;4808922;29;20233;-83
2022/11/29 05:22:26;;;;;;;34.30;15.10;;;1.70;99.90;;;;;;4808437;29;20191;-72
2022/11/29 05:25:28;;;;;;;32.27;15.00;;;1.70;99.90;;;;;;4792127;29;20235;-84
2022/11/29 05:28:19;;;;;;;32.77;15.07;;;1.70;99.90;;;;;;4792435;29;20336;-83
2022/11/29 05:31:07;;;;;;;34.10;14.70;;;1.80;99.90;;;;;;4808660;29;20214;-81
2022/11/29 05:34:09;;;;;;;32.00;14.80;;;1.80;99.90;;;;;;4792196;29;20211;-84
2022/11/29 05:36:48;;;;;;;33.33;14.93;;;1.80;99.90;;;;;;4802291;29;20673;-84
2022/11/29 05:39:25;;;;;;;35.20;14.57;;;1.70;99.90;;;;;;4791961;29;20670;-84
2022/11/29 05:42:11;;;;;;;34.50;15.20;;;1.70;99.90;;;;;;4791984;29;20203;-76
2022/11/29 05:44:48;;;;;;;37.30;14.63;;;1.70;99.90;;;;;;4791977;29;20235;-77
2022/11/29 05:47:22;;;;;;;37.33;16.07;;;1.70;99.90;;;;;;4788290;29;20204;-74
2022/11/29 05:50:04;;;;;;;36.57;15.33;;;1.70;99.90;;;;;;4799294;29;20237;-73
2022/11/29 05:52:54;;;;;;;41.33;15.93;;;1.70;99.90;;;;;;4791824;29;20680;-73
2022/11/29 05:55:33;;;;;;;32.07;14.43;;;1.70;99.90;;;;;;4807849;29;20213;-74
2022/11/29 05:58:20;;;;;;;33.23;15.50;;;1.80;99.90;;;;;;4791606;29;20210;-73
2022/11/29 06:01:03;;;;;;;36.67;15.83;;;1.80;99.90;;;;;;4808140;29;20199;-74
2022/11/29 06:03:45;;;;;;;37.80;15.87;;;1.80;99.90;;;;;;4805044;29;20609;-74
2022/11/29 06:06:18;;;;;;;38.13;15.70;;;1.80;99.90;;;;;;4806048;29;20248;-76
2022/11/29 06:08:55;;;;;;;46.63;17.63;;;1.80;99.90;;;;;;4784238;29;20214;-82
2022/11/29 06:11:47;;;;;;;38.10;16.50;;;1.80;99.90;;;;;;4806585;29;20677;-84
2022/11/29 06:14:36;;;;;;;38.77;16.80;;;1.80;99.90;;;;;;4754864;30;20204;-75
2022/11/29 06:17:24;;;;;;;38.50;16.10;;;1.70;99.90;;;;;;4769624;30;20208;-79
2022/11/29 06:19:58;;;;;;;35.37;15.90;;;1.70;99.90;;;;;;4774023;30;20224;-81
2022/11/29 06:22:30;;;;;;;37.47;17.10;;;1.70;99.90;;;;;;4767892;30;20279;-87
2022/11/29 06:25:00;;;;;;;37.67;17.27;;;1.80;99.90;;;;;;4769650;30;20278;-82
2022/11/29 06:27:36;;;;;;;39.13;17.17;;;1.70;99.90;;;;;;4754584;30;20212;-78
2022/11/29 06:30:09;;;;;;;37.27;16.60;;;1.70;99.90;;;;;;4770330;30;20259;-77
2022/11/29 06:32:39;;;;;;;37.43;16.40;;;1.80;99.90;;;;;;4769695;30;20224;-81
2022/11/29 06:35:34;;;;;;;39.00;16.73;;;1.80;99.90;;;;;;4754522;30;20278;-80
2022/11/29 06:38:19;;;;;;;40.30;17.30;;;1.70;99.90;;;;;;4712344;30;20219;-82
2022/11/29 06:40:47;;;;;;;39.33;16.73;;;1.70;99.90;;;;;;4715287;30;20678;-76
2022/11/29 06:43:14;;;;;;;39.03;17.03;;;1.70;99.90;;;;;;4701980;30;20299;-83
2022/11/29 06:45:49;;;;;;;43.80;17.10;;;1.80;99.90;;;;;;4700996;30;20232;-74
2022/11/29 06:48:26;;;;;;;40.40;17.60;;;1.80;99.90;;;;;;4701611;30;20234;-75
2022/11/29 06:51:08;;;;;;;41.27;17.83;;;1.80;99.90;;;;;;4716667;30;20221;-76
2022/11/29 06:53:56;;;;;;;42.67;17.60;;;1.80;99.90;;;;;;4703210;30;20268;-76
2022/11/29 06:56:35;;;;;;;41.80;17.40;;;1.70;99.90;;;;;;4719025;30;20235;-78
2022/11/29 06:59:24;;;;;;;38.43;16.60;;;1.80;99.90;;;;;;4718156;30;20217;-73
2022/11/29 07:02:12;;;;;;;41.47;17.90;;;1.80;99.90;;;;;;4718823;30;20213;-71
2022/11/29 07:05:09;;;;;;;42.17;17.80;;;1.80;99.90;;;;;;4733642;30;20328;-84
2022/11/29 07:07:36;;;;;;;43.93;17.80;;;1.80;99.90;;;;;;4717684;30;20762;-81
2022/11/29 07:10:04;;;;;;;39.17;16.47;;;1.90;99.90;;;;;;4718860;30;20214;-74
2022/11/29 07:12:38;;;;;;;40.30;17.17;;;1.90;99.90;;;;;;4718982;30;20239;-74
2022/11/29 07:15:05;;;;;;;44.77;17.97;;;1.80;99.90;;;;;;4769428;29;20264;-81
2022/11/29 07:17:48;;;;;;;44.00;17.90;;;1.90;99.90;;;;;;4784625;29;20200;-80
2022/11/29 07:20:44;;;;;;;42.43;17.47;;;1.90;99.90;;;;;;4773492;29;20218;-75
2022/11/29 07:23:22;;;;;;;41.57;17.67;;;1.90;99.90;;;;;;4753734;30;20218;-76
2022/11/29 07:26:04;;;;;;;43.27;17.87;;;2.00;99.90;;;;;;4738287;30;20589;-78
2022/11/29 07:28:31;;;;;;;43.60;17.67;;;2.00;99.90;;;;;;4743831;30;20210;-80
2022/11/29 07:31:19;;;;;;;39.40;17.40;;;1.90;99.90;;;;;;4765893;30;20291;-79
2022/11/29 07:34:07;;;;;;;41.30;17.40;;;1.90;99.90;;;;;;4746254;30;20241;-77
2022/11/29 07:37:01;;;;;;;44.60;17.77;;;2.00;99.90;;;;;;4745608;30;20221;-75
2022/11/29 07:40:02;;;;;;;35.93;16.27;;;2.00;99.90;;;;;;4735848;30;20217;-78
2022/11/29 07:42:54;;;;;;;38.80;16.40;;;2.00;99.90;;;;;;4750827;30;20197;-79
2022/11/29 07:45:30;;;;;;;41.07;15.97;;;2.00;99.90;;;;;;4735644;30;20244;-77
2022/11/29 07:47:58;;;;;;;35.07;16.37;;;2.00;99.90;;;;;;4735601;30;20213;-79
2022/11/29 07:50:27;;;;;;;34.77;16.00;;;2.00;99.90;;;;;;4736160;30;20696;-73
2022/11/29 07:52:54;;;;;;;32.87;16.00;;;2.00;99.90;;;;;;4735749;30;20746;-73
2022/11/29 07:55:23;;;;;;;38.33;16.00;;;2.00;99.90;;;;;;4750403;30;20251;-79
2022/11/29 07:57:51;;;;;;;34.43;15.50;;;2.00;99.90;;;;;;4735561;30;20213;-72
2022/11/29 08:00:19;;;;;;;34.10;15.83;;;2.00;99.90;;;;;;4768073;30;20594;-72
2022/11/29 08:02:49;;;;;;;33.67;15.80;;;2.00;99.90;;;;;;4788275;29;20207;-73
2022/11/29 08:05:16;;;;;;;35.27;15.30;;;2.10;99.90;;;;;;4787864;29;20256;-75
2022/11/29 08:07:43;;;;;;;37.50;16.63;;;2.00;99.90;;;;;;4771911;30;20698;-74
2022/11/29 08:10:13;;;;;;;33.77;15.57;;;1.90;99.90;;;;;;4772728;30;20208;-71
2022/11/29 08:12:46;;;;;;;30.13;14.33;;;2.00;99.90;;;;;;4775679;30;20200;-76
2022/11/29 08:15:13;;;;;;;32.53;14.73;;;2.00;99.90;;;;;;4775484;30;20295;-78
2022/11/29 08:17:40;;;;;;;35.23;14.63;;;2.00;99.90;;;;;;4791527;29;20220;-77
2022/11/29 08:20:10;;;;;;;35.90;16.13;;;2.10;99.90;;;;;;4775401;30;20574;-71
2022/11/29 08:22:37;;;;;;;34.63;14.93;;;2.00;99.90;;;;;;4791933;29;20230;-77
2022/11/29 08:25:05;;;;;;;37.27;16.70;;;2.00;99.90;;;;;;4775119;30;20220;-71
2022/11/29 08:27:34;;;;;;;35.60;15.13;;;2.00;99.90;;;;;;4775102;30;20273;-71
2022/11/29 08:30:01;;;;;;;36.33;15.70;;;2.10;99.90;;;;;;4775236;30;20208;-73
2022/11/29 08:32:27;;;;;;;37.13;16.70;;;2.10;99.90;;;;;;4775298;29;20199;-71
2022/11/29 08:34:54;;;;;;;36.87;16.10;;;2.10;99.90;;;;;;4775009;30;20250;-73
2022/11/29 08:37:21;;;;;;;36.13;15.80;;;2.10;99.90;;;;;;4775038;30;20204;-73
2022/11/29 08:39:48;;;;;;;37.00;15.27;;;2.10;99.90;;;;;;4775096;30;20204;-73
2022/11/29 08:42:15;;;;;;;37.87;15.93;;;2.10;99.90;;;;;;4791374;29;20209;-72
2022/11/29 08:44:42;;;;;;;34.13;15.13;;;2.20;99.90;;;;;;4791003;29;20228;-79
2022/11/29 08:50:01;;;;;;;31.80;14.00;;;2.20;99.90;;;;;;4791247;29;20619;-77
2022/11/29 08:55:19;;;;;;;35.43;14.87;;;2.30;99.90;;;;;;4774971;30;20711;-78
2022/11/29 08:57:46;;;;;;;32.27;15.10;;;2.30;99.90;;;;;;4790929;29;20313;-71
2022/11/29 09:00:14;;;;;;;34.37;14.80;;;2.30;99.90;;;;;;4790847;29;20684;-71
2022/11/29 09:02:41;;;;;;;33.93;14.67;;;2.30;99.90;;;;;;4774568;30;20250;-70
2022/11/29 09:05:10;;;;;;;32.83;13.97;;;2.30;99.90;;;;;;4774349;30;20321;-76
2022/11/29 09:07:37;;;;;;;31.53;14.30;;;2.30;99.90;;;;;;4774617;30;20270;-72
2022/11/29 09:10:07;;;;;;;30.73;14.93;;;2.20;99.90;;;;;;4774357;30;20212;-76
2022/11/29 09:12:38;;;;;;;34.90;15.07;;;2.30;99.90;;;;;;4774697;30;20213;-71
2022/11/29 09:15:08;;;;;;;29.43;13.97;;;2.40;99.90;;;;;;4790537;30;20606;-71
2022/11/29 09:17:35;;;;;;;34.93;15.30;;;2.40;99.90;;;;;;4774449;29;20208;-77
2022/11/29 09:20:04;;;;;;;33.07;14.80;;;2.40;99.90;;;;;;4774796;30;20208;-74
2022/11/29 09:22:31;;;;;;;32.83;15.03;;;2.30;99.90;;;;;;4773945;30;20208;-72
2022/11/29 09:24:57;;;;;;;32.40;14.87;;;2.30;99.90;;;;;;4774496;30;20241;-70
2022/11/29 09:27:24;;;;;;;35.37;15.47;;;2.30;99.90;;;;;;4774305;30;20212;-72
2022/11/29 09:29:51;;;;;;;30.67;14.57;;;2.40;99.90;;;;;;4774443;30;20218;-72
2022/11/29 09:32:18;;;;;;;31.43;14.70;;;2.40;99.90;;;;;;4790533;29;20562;-72
2022/11/29 09:34:45;;;;;;;32.07;14.43;;;2.30;99.90;;;;;;4789984;29;20597;-73
2022/11/29 09:37:12;;;;;;;29.10;14.13;;;2.40;99.90;;;;;;4774252;30;20582;-72
2022/11/29 09:39:40;;;;;;;31.47;14.37;;;2.40;99.90;;;;;;4774133;30;20208;-70
2022/11/29 09:42:26;;;;;;;31.87;13.10;;;2.40;99.90;;;;;;4774145;30;20690;-72
2022/11/29 09:45:09;;;;;;;31.27;13.77;;;2.40;99.90;;;;;;4789984;30;20307;-72
2022/11/29 09:47:56;;;;;;;29.17;14.10;;;2.40;99.90;;;;;;4774083;29;20200;-71
2022/11/29 09:50:30;;;;;;;29.80;13.53;;;2.30;99.90;;;;;;4774247;30;20219;-72
2022/11/29 09:53:19;;;;;;;32.20;14.70;;;2.30;99.90;;;;;;4773923;30;20299;-73
2022/11/29 09:56:03;;;;;;;32.13;14.37;;;2.40;99.90;;;;;;4773955;30;20215;-76
2022/11/29 09:58:46;;;;;;;30.13;13.70;;;2.40;99.90;;;;;;4773869;30;20287;-71
2022/11/29 10:01:20;;;;;;;25.90;12.90;;;2.40;99.90;;;;;;4774128;30;20305;-79
2022/11/29 10:03:51;;;;;;;27.73;13.97;;;2.40;99.90;;;;;;4773532;30;20654;-74
2022/11/29 10:06:37;;;;;;;29.60;13.80;;;2.40;99.90;;;;;;4773547;30;20235;-74
2022/11/29 10:09:23;;;;;;;28.47;12.93;;;2.40;99.90;;;;;;4773688;30;20205;-75
2022/11/29 10:12:09;;;;;;;31.13;13.67;;;2.40;99.90;;;;;;4773376;30;20205;-73
2022/11/29 10:14:51;;;;;;;26.83;12.90;;;2.40;99.90;;;;;;4789241;29;20192;-73
2022/11/29 10:17:54;;;;;;;29.53;13.87;;;2.50;99.90;;;;;;4773235;30;20209;-73
2022/11/29 10:20:29;;;;;;;27.33;12.43;;;2.40;99.90;;;;;;4736976;30;20300;-72
2022/11/29 10:23:25;;;;;;;26.53;13.23;;;2.40;99.90;;;;;;4736868;30;20213;-76
2022/11/29 10:25:54;;;;;;;27.27;13.37;;;2.50;99.90;;;;;;4736552;30;20580;-73
2022/11/29 10:28:25;;;;;;;28.27;13.80;;;2.50;99.90;;;;;;4751663;30;20601;-77
2022/11/29 10:30:54;;;;;;;35.37;12.97;;;2.50;99.90;;;;;;4751559;30;20644;-73
2022/11/29 10:33:34;;;;;;;28.83;13.53;;;2.50;99.90;;;;;;4750863;30;20215;-77
2022/11/29 10:36:14;;;;;;;27.67;12.93;;;2.50;99.90;;;;;;4736570;30;20233;-75
2022/11/29 10:38:43;;;;;;;24.73;12.30;;;2.40;99.90;;;;;;4736641;30;20214;-78
2022/11/29 10:41:16;;;;;;;26.53;12.87;;;2.40;99.90;;;;;;4751420;30;20198;-77
2022/11/29 10:43:43;;;;;;;28.00;13.07;;;2.40;99.90;;;;;;4736354;30;20297;-75
2022/11/29 10:46:24;;;;;;;25.97;12.60;;;2.50;99.90;;;;;;4751306;30;20240;-76
2022/11/29 10:48:52;;;;;;;32.37;13.80;;;2.50;99.90;;;;;;4751081;30;20571;-77
2022/11/29 10:51:19;;;;;;;30.17;13.70;;;2.50;99.90;;;;;;4751175;30;20217;-78
2022/11/29 10:53:48;;;;;;;27.17;12.97;;;2.50;99.90;;;;;;4751368;30;20223;-78
2022/11/29 10:56:30;;;;;;;23.80;12.10;;;2.60;99.90;;;;;;5070122;28;21039;-79
2022/11/29 10:59:01;;;;;;;26.63;12.67;;;2.50;99.90;;;;;;5069171;28;20198;-75
2022/11/29 11:01:36;;;;;;;28.07;12.53;;;2.50;99.90;;;;;;5069036;28;20260;-80
2022/11/29 11:04:06;;;;;;;26.37;12.50;;;2.50;99.90;;;;;;5069042;28;20185;-79
2022/11/29 11:06:58;;;;;;;28.07;12.73;;;2.60;99.90;;;;;;5069319;28;20229;-77
2022/11/29 11:09:47;;;;;;;25.60;12.57;;;2.70;99.90;;;;;;5070084;28;20241;-79
2022/11/29 11:12:14;;;;;;;27.60;12.77;;;2.70;99.90;;;;;;5068808;28;20213;-75
2022/11/29 11:14:42;;;;;;;26.37;12.97;;;2.70;99.90;;;;;;5068582;28;20225;-73
2022/11/29 11:17:31;;;;;;;26.20;12.80;;;2.70;99.90;;;;;;5068819;28;20187;-74
2022/11/29 11:20:19;;;;;;;25.87;12.77;;;2.60;99.90;;;;;;5069951;28;20198;-73
2022/11/29 11:23:04;;;;;;;27.70;12.73;;;2.60;99.90;;;;;;5070473;28;20279;-74
2022/11/29 11:25:38;;;;;;;24.90;12.93;;;2.60;99.90;;;;;;5068797;28;20198;-71
2022/11/29 11:28:25;;;;;;;28.23;13.33;;;2.60;99.90;;;;;;5069854;28;20273;-74
2022/11/29 11:30:58;;;;;;;25.30;12.60;;;2.50;99.90;;;;;;5068700;28;20301;-74
2022/11/29 11:33:32;;;;;;;27.90;13.70;;;2.50;99.90;;;;;;5069902;28;20660;-74
2022/11/29 11:36:18;;;;;;;24.83;12.77;;;2.50;99.90;;;;;;5051758;28;20296;-75
2022/11/29 11:38:54;;;;;;;24.90;12.97;;;2.60;99.90;;;;;;5068702;28;20197;-74
2022/11/29 11:44:33;;;;;;;30.67;13.47;;;2.70;99.90;;;;;;5068243;28;20292;-79
2022/11/29 11:47:34;;;;;;;30.03;12.67;;;2.70;99.90;;;;;;5068386;28;20648;-78
2022/11/29 11:50:01;;;;;;;27.43;13.43;;;2.70;99.90;;;;;;5068278;28;20285;-73
2022/11/29 11:52:34;;;;;;;24.73;12.73;;;2.60;99.90;;;;;;5068204;28;20735;-77
2022/11/29 11:55:28;;;;;;;24.03;12.20;;;2.50;99.90;;;;;;5052417;28;20696;-74
2022/11/29 11:58:04;;;;;;;23.33;11.90;;;2.50;99.90;;;;;;5068080;28;20216;-78
2022/11/29 12:00:45;;;;;;;23.60;12.53;;;2.40;99.90;;;;;;5069721;28;20214;-77
2022/11/29 12:03:42;;;;;;;27.63;12.23;;;2.30;99.90;;;;;;5069090;28;20182;-78
2022/11/29 12:06:27;;;;;;;25.80;12.47;;;2.30;99.90;;;;;;5063302;28;20261;-79
2022/11/29 12:09:10;;;;;;;22.47;11.87;;;2.30;99.90;;;;;;5038362;28;20298;-77
2022/11/29 12:12:03;;;;;;;30.57;12.97;;;2.40;99.90;;;;;;5054839;28;20638;-79
2022/11/29 12:14:41;;;;;;;29.30;12.47;;;2.50;99.90;;;;;;5054800;28;20225;-79
2022/11/29 12:17:18;;;;;;;26.63;12.43;;;2.50;99.90;;;;;;5054811;28;20202;-80
2022/11/29 12:19:58;;;;;;;27.23;12.70;;;2.50;99.90;;;;;;5055783;28;20179;-72
2022/11/29 12:22:32;;;;;;;25.93;12.90;;;2.50;99.90;;;;;;5056236;28;20377;-73
2022/11/29 12:25:05;;;;;;;24.53;13.23;;;2.40;99.90;;;;;;5054339;28;20201;-76
2022/11/29 12:27:32;;;;;;;23.03;12.37;;;2.50;99.90;;;;;;5054509;28;20207;-72
2022/11/29 12:29:59;;;;;;;23.63;12.77;;;2.50;99.90;;;;;;5055600;28;20537;-72
2022/11/29 12:32:45;;;;;;;27.23;13.00;;;2.40;99.90;;;;;;5037901;28;20219;-79
2022/11/29 12:35:37;;;;;;;24.27;12.40;;;2.50;99.90;;;;;;5053804;28;20257;-74
2022/11/29 12:38:16;;;;;;;24.67;12.20;;;2.40;99.90;;;;;;5054150;28;20203;-77
2022/11/29 12:41:03;;;;;;;29.10;13.10;;;2.40;99.90;;;;;;5055473;28;20655;-72
2022/11/29 12:43:42;;;;;;;25.93;13.00;;;2.40;99.90;;;;;;5055286;28;20261;-76
2022/11/29 12:46:22;;;;;;;30.90;12.93;;;2.40;99.90;;;;;;5053989;28;20531;-72
2022/11/29 12:48:59;;;;;;;25.53;12.40;;;2.40;99.90;;;;;;5053955;28;20202;-72
2022/11/29 12:51:56;;;;;;;24.70;12.53;;;2.40;99.90;;;;;;5053982;28;20202;-73
2022/11/29 12:54:51;;;;;;;23.70;12.63;;;2.50;99.90;;;;;;5054961;28;20567;-72
2022/11/29 12:57:43;;;;;;;23.73;12.37;;;2.50;99.90;;;;;;5053827;28;20225;-78
2022/11/29 13:00:13;;;;;;;25.77;12.80;;;2.40;99.90;;;;;;5053812;28;20224;-78
2022/11/29 13:03:07;;;;;;;27.47;12.97;;;2.40;99.90;;;;;;5037448;28;20207;-76
2022/11/29 13:05:55;;;;;;;25.00;12.77;;;2.30;99.90;;;;;;5054907;28;20198;-74
2022/11/29 13:08:44;;;;;;;24.60;12.63;;;2.40;99.90;;;;;;5053562;28;20244;-76
2022/11/29 13:11:23;;;;;;;27.53;13.07;;;2.30;99.90;;;;;;5053680;28;20198;-74
2022/11/29 13:14:09;;;;;;;28.80;13.40;;;2.30;99.90;;;;;;5053519;28;20670;-74
2022/11/29 13:17:03;;;;;;;30.33;13.80;;;2.30;99.90;;;;;;5054572;28;20174;-77
2022/11/29 13:19:54;;;;;;;26.53;13.73;;;2.30;99.90;;;;;;5052485;28;20664;-77
2022/11/29 13:22:31;;;;;;;25.10;12.60;;;2.30;99.90;;;;;;5053428;28;20197;-79
2022/11/29 13:25:02;;;;;;;26.93;13.13;;;2.30;99.90;;;;;;5054817;28;20198;-75
2022/11/29 13:27:38;;;;;;;27.80;12.60;;;2.20;99.90;;;;;;5036589;28;20218;-74
2022/11/29 13:30:06;;;;;;;27.47;12.77;;;2.30;99.90;;;;;;5053519;28;20304;-74
2022/11/29 13:32:43;;;;;;;24.80;12.67;;;2.20;99.90;;;;;;5036806;28;20194;-73
2022/11/29 13:35:28;;;;;;;25.73;12.70;;;2.30;99.90;;;;;;5036492;28;20221;-74
2022/11/29 13:38:04;;;;;;;24.43;13.10;;;2.20;99.90;;;;;;5054195;28;20198;-73